Time;durP1;ratioP1;P1;durP2;ratioP2;P2;SDS_P1;SDS_P2;PMS_P1;PMS_P2;Temp;Humidity;BMP_temperature;BMP_pressure;BME280_temperature;BME280_humidity;BME280_pressure;Samples;Min_cycle;Max_cycle;Signal;HPM_P1;HPM_P2
2022/01/25 00:10:36;;;;;;;3.05;1.35;;;;;;;13.17;35.76;98127.59;5121728;28;20031;-31
2022/01/25 00:24:14;;;;;;;1.73;0.93;;;;;;;13.26;35.82;98144.25;5134076;28;20397;-32
2022/01/25 00:26:47;;;;;;;1.60;1.00;;;;;;;13.21;35.92;98147.44;5137926;27;20054;-31
2022/01/25 00:29:26;;;;;;;1.35;1.00;;;;;;;13.21;35.67;98139.25;5137662;27;20033;-32
2022/01/25 00:31:51;;;;;;;1.27;0.80;;;;;;;13.23;35.66;98142.31;5137877;27;20027;-31
2022/01/25 00:34:17;;;;;;;1.42;1.10;;;;;;;13.15;35.92;98148.25;5119230;27;20558;-32
2022/01/25 00:36:42;;;;;;;1.30;0.93;;;;;;;13.18;35.39;98150.16;5137654;27;20029;-31
2022/01/25 00:39:07;;;;;;;1.88;0.82;;;;;;;13.25;35.63;98156.31;5137404;27;20026;-31
2022/01/25 00:41:33;;;;;;;1.13;0.77;;;;;;;13.21;35.58;98152.88;5137615;27;20483;-31
2022/01/25 00:44:00;;;;;;;2.55;1.00;;;;;;;13.19;35.69;98149.78;5137376;27;20023;-31
2022/01/25 00:46:26;;;;;;;1.20;0.80;;;;;;;13.26;35.38;98148.94;5137425;27;20023;-32
2022/01/25 00:48:55;;;;;;;1.50;0.93;;;;;;;13.19;35.45;98159.91;5137327;27;20106;-31
2022/01/25 00:56:47;;;;;;;1.48;0.90;;;;;;;13.23;35.23;98158.69;5137709;27;20459;-31
2022/01/25 00:59:16;;;;;;;1.50;0.90;;;;;;;13.17;35.55;98159.53;5137027;27;20050;-31
2022/01/25 01:01:43;;;;;;;1.45;0.93;;;;;;;13.21;35.27;98152.09;5137196;27;20026;-31
2022/01/25 01:04:09;;;;;;;4.00;1.17;;;;;;;13.19;35.68;98162.63;5136980;27;20034;-31
2022/01/25 01:06:35;;;;;;;1.50;0.88;;;;;;;13.24;35.47;98170.34;5136999;27;20482;-31
2022/01/25 01:09:01;;;;;;;2.30;0.98;;;;;;;13.23;35.54;98177.75;5136880;27;20527;-31
2022/01/25 01:11:36;;;;;;;2.33;0.93;;;;;;;13.17;35.25;98181.31;5137083;27;20054;-31
2022/01/25 01:14:19;;;;;;;2.58;1.15;;;;;;;13.16;35.25;98172.38;5137111;27;20074;-31
2022/01/25 01:17:12;;;;;;;1.83;0.90;;;;;;;13.19;35.07;98173.53;5136839;27;20500;-31
2022/01/25 01:31:26;;;;;;;2.25;1.08;;;;;;;13.08;35.39;98173.56;5136697;27;20022;-31
2022/01/25 01:43:52;;;;;;;1.98;1.20;;;;;;;12.89;35.61;98163.19;5136383;27;20023;-32
2022/01/25 01:46:32;;;;;;;1.33;1.00;;;;;;;12.86;35.70;98161.25;5136214;27;20033;-32
2022/01/25 01:49:01;;;;;;;2.17;1.20;;;;;;;12.84;35.75;98169.06;5136606;27;20027;-31
2022/01/25 01:51:34;;;;;;;2.88;1.02;;;;;;;13.00;35.32;98177.50;5117575;27;20031;-31
2022/01/25 01:54:08;;;;;;;1.70;0.90;;;;;;;13.00;35.36;98169.34;5136494;27;20034;-31
2022/01/25 01:56:34;;;;;;;2.10;1.27;;;;;;;13.05;35.31;98177.09;5136195;27;20027;-31
2022/01/25 01:59:02;;;;;;;2.25;0.90;;;;;;;13.00;35.30;98166.59;5117420;27;20088;-31
2022/01/25 02:01:29;;;;;;;2.53;1.17;;;;;;;12.92;35.19;98163.16;5136036;27;20031;-31
2022/01/25 02:03:56;;;;;;;1.52;1.10;;;;;;;12.99;35.37;98165.06;5135947;27;20027;-31
2022/01/25 02:06:22;;;;;;;1.83;1.13;;;;;;;12.89;35.52;98171.34;5135860;27;20023;-31
2022/01/25 02:08:48;;;;;;;2.85;1.35;;;;;;;12.87;35.20;98170.97;5135755;27;20494;-31
2022/01/25 02:11:14;;;;;;;2.22;1.10;;;;;;;12.94;35.39;98171.72;5115303;27;20016;-31
2022/01/25 02:13:41;;;;;;;2.03;1.30;;;;;;;12.82;34.91;98158.56;5118345;27;20407;-31
2022/01/25 02:16:14;;;;;;;2.33;1.10;;;;;;;12.88;35.08;98172.53;5135628;27;20041;-31
2022/01/25 02:24:07;;;;;;;1.92;1.10;;;;;;;13.01;34.74;98160.00;5135506;27;20023;-31
2022/01/25 02:26:32;;;;;;;2.28;0.93;;;;;;;12.88;35.05;98148.78;5135356;27;20019;-31
2022/01/25 02:28:58;;;;;;;1.67;1.15;;;;;;;12.90;35.23;98143.72;5135491;27;20027;-31
2022/01/25 02:31:23;;;;;;;2.72;1.33;;;;;;;12.84;35.16;98139.13;5135287;27;20367;-31
2022/01/25 02:33:49;;;;;;;1.80;1.20;;;;;;;12.80;35.01;98141.84;5116919;27;20027;-31
2022/01/25 02:36:24;;;;;;;2.38;1.30;;;;;;;12.83;35.23;98140.28;5135447;27;20478;-31
2022/01/25 02:38:50;;;;;;;1.42;1.10;;;;;;;12.74;35.03;98137.22;5135138;27;20106;-31
2022/01/25 02:41:15;;;;;;;3.85;1.13;;;;;;;12.44;35.24;98135.84;5134684;27;20066;-31
2022/01/25 02:43:43;;;;;;;1.58;1.00;;;;;;;12.71;35.04;98127.16;5135176;27;20037;-31
2022/01/25 02:48:59;;;;;;;2.25;1.30;;;;;;;12.76;34.90;98130.22;5134955;27;20023;-32
2022/01/25 02:51:29;;;;;;;2.92;1.13;;;;;;;12.83;34.81;98124.72;5135070;27;20023;-31
2022/01/25 02:53:55;;;;;;;2.95;1.65;;;;;;;12.75;34.44;98119.72;5134976;27;20106;-31
2022/01/25 02:56:22;;;;;;;2.65;1.20;;;;;;;12.73;34.59;98124.81;5116434;27;20084;-32
2022/01/25 02:58:48;;;;;;;2.90;1.25;;;;;;;12.84;34.34;98120.06;5134429;27;20086;-31
2022/01/25 03:01:15;;;;;;;1.83;0.98;;;;;;;12.85;34.35;98116.94;5134776;27;20050;-31
2022/01/25 03:03:41;;;;;;;2.47;1.13;;;;;;;12.81;34.27;98115.41;5134808;27;20027;-31
2022/01/25 03:06:07;;;;;;;2.50;1.20;;;;;;;12.81;34.70;98118.13;5134793;27;20034;-31
2022/01/25 03:08:33;;;;;;;2.47;1.00;;;;;;;12.80;34.29;98113.84;5134874;27;20023;-31
2022/01/25 03:10:59;;;;;;;2.13;1.10;;;;;;;12.81;34.16;98129.03;5134706;27;20027;-31
2022/01/25 03:13:31;;;;;;;2.25;1.20;;;;;;;12.82;34.27;98122.41;5134730;27;20019;-31
2022/01/25 03:16:05;;;;;;;1.40;1.05;;;;;;;12.73;34.37;98127.53;5116170;27;20022;-32
2022/01/25 03:21:16;;;;;;;2.97;1.60;;;;;;;12.78;34.03;98124.38;5134643;27;20059;-31
2022/01/25 03:23:43;;;;;;;1.90;1.30;;;;;;;12.68;34.12;98123.28;5134351;27;20498;-31
2022/01/25 03:26:09;;;;;;;1.92;1.23;;;;;;;12.67;34.37;98121.72;5134280;27;20034;-32
2022/01/25 03:28:34;;;;;;;2.75;1.23;;;;;;;12.73;34.04;98119.38;5134701;27;20023;-32
2022/01/25 03:31:00;;;;;;;2.92;1.70;;;;;;;12.69;34.04;98118.59;5134453;27;20023;-31
2022/01/25 03:33:25;;;;;;;2.50;1.30;;;;;;;12.72;34.24;98124.03;5134416;27;20538;-31
2022/01/25 03:35:51;;;;;;;3.15;1.30;;;;;;;12.76;34.27;98118.53;5134249;27;20062;-31
2022/01/25 03:38:17;;;;;;;2.88;1.73;;;;;;;12.70;34.11;98126.38;5134149;27;20023;-32
2022/01/25 03:40:44;;;;;;;2.92;1.25;;;;;;;12.78;34.36;98118.91;5134265;27;20027;-31
2022/01/25 03:43:10;;;;;;;1.85;1.40;;;;;;;12.83;33.78;98113.84;5115753;28;20451;-31
2022/01/25 03:45:38;;;;;;;2.05;1.40;;;;;;;12.85;33.93;98110.72;5134323;27;20102;-31
2022/01/25 03:50:35;;;;;;;2.08;1.13;;;;;;;12.74;33.90;98115.44;5134665;28;20087;-31
2022/01/25 03:53:00;;;;;;;3.00;1.30;;;;;;;12.79;33.86;98107.63;5134113;27;20019;-31
2022/01/25 03:55:26;;;;;;;1.92;1.20;;;;;;;12.65;33.97;98107.72;5137904;27;20015;-31
2022/01/25 03:57:51;;;;;;;1.65;1.05;;;;;;;12.66;33.95;98114.72;5138070;27;20015;-32
2022/01/25 04:00:17;;;;;;;2.40;1.20;;;;;;;12.73;33.81;98108.47;5138567;27;20031;-31
2022/01/25 04:02:54;;;;;;;2.15;1.30;;;;;;;12.76;33.73;98113.09;5138261;27;20474;-31
2022/01/25 04:05:24;;;;;;;3.60;1.45;;;;;;;12.78;33.79;98113.47;5138396;27;20027;-31
2022/01/25 04:07:50;;;;;;;1.83;1.17;;;;;;;12.82;33.48;98095.94;5138250;27;20083;-31
2022/01/25 04:10:19;;;;;;;1.67;1.30;;;;;;;12.66;33.73;98094.91;5138146;27;20023;-31
2022/01/25 04:12:47;;;;;;;2.72;1.38;;;;;;;12.69;33.89;98094.88;5138096;27;20019;-31
2022/01/25 04:15:13;;;;;;;3.08;1.20;;;;;;;12.69;33.87;98096.81;5137918;27;20074;-31
2022/01/25 04:17:42;;;;;;;1.90;1.20;;;;;;;12.76;33.54;98102.22;5138288;27;20027;-31
2022/01/25 04:20:25;;;;;;;3.25;2.28;;;;;;;12.77;33.60;98106.47;5137929;27;20019;-31
2022/01/25 04:25:35;;;;;;;2.47;1.20;;;;;;;12.77;33.52;98106.47;5138036;27;20034;-31
2022/01/25 04:28:00;;;;;;;1.50;0.98;;;;;;;12.77;33.47;98109.97;5137756;27;20035;-31
2022/01/25 04:30:26;;;;;;;2.58;1.10;;;;;;;12.81;33.53;98099.84;5137608;27;20094;-31
2022/01/25 04:33:00;;;;;;;1.70;1.25;;;;;;;12.78;33.30;98102.59;5137774;27;20390;-31
2022/01/25 04:35:45;;;;;;;1.63;1.17;;;;;;;12.83;33.24;98104.91;5137575;27;20023;-31
2022/01/25 04:54:07;;;;;;;1.58;1.15;;;;;;;12.70;33.19;98098.38;5137481;27;20064;-31
2022/01/25 04:56:52;;;;;;;1.38;1.00;;;;;;;12.76;32.91;98113.09;5137451;27;20044;-30
2022/01/25 04:59:35;;;;;;;1.25;1.00;;;;;;;12.78;33.16;98103.34;5137000;27;20066;-31
2022/01/25 05:02:44;;;;;;;1.45;1.20;;;;;;;12.81;33.33;98099.06;5137351;27;20020;-31
2022/01/25 05:04:59;;;;;;;1.98;1.40;;;;;;;12.65;33.25;98101.50;5133301;27;20027;-31
2022/01/25 05:09:51;;;;;;;2.45;1.35;;;;;;;12.65;33.13;98107.72;5137285;27;20023;-31
2022/01/25 05:12:17;;;;;;;2.28;1.23;;;;;;;12.74;33.32;98099.09;5137202;27;20019;-31
2022/01/25 05:14:57;;;;;;;2.00;1.17;;;;;;;12.78;33.15;98102.59;5136825;27;20494;-31
2022/01/25 05:17:32;;;;;;;2.45;1.20;;;;;;;12.75;32.88;98106.88;5136852;27;20027;-31
2022/01/25 05:22:42;;;;;;;2.78;1.38;;;;;;;12.61;32.92;98095.34;5136853;27;20083;-31
2022/01/25 05:25:07;;;;;;;3.50;1.55;;;;;;;12.71;32.96;98105.38;5136623;27;20023;-31
2022/01/25 05:27:33;;;;;;;2.13;1.20;;;;;;;12.61;33.31;98112.41;5136599;27;20027;-31
2022/01/25 05:29:58;;;;;;;3.30;1.23;;;;;;;12.68;32.79;98100.72;5136813;27;20391;-31
2022/01/25 05:32:24;;;;;;;1.85;1.20;;;;;;;12.66;33.08;98105.78;5136592;27;20023;-31
2022/01/25 05:34:50;;;;;;;2.80;1.48;;;;;;;12.64;33.11;98102.69;5136752;27;20015;-31
2022/01/25 05:37:15;;;;;;;2.33;1.35;;;;;;;12.68;32.94;98103.44;5136674;27;20371;-31
2022/01/25 05:39:41;;;;;;;1.98;1.33;;;;;;;12.69;33.14;98105.00;5136272;27;20023;-31
2022/01/25 05:47:07;;;;;;;1.42;1.13;;;;;;;12.69;33.07;98100.31;5136469;27;20068;-32
2022/01/25 05:49:37;;;;;;;1.52;1.10;;;;;;;12.69;32.77;98097.59;5117968;27;20023;-31
2022/01/25 05:52:05;;;;;;;1.75;1.17;;;;;;;12.55;32.87;98087.56;5136346;27;20026;-31
2022/01/25 05:54:31;;;;;;;1.77;1.20;;;;;;;12.64;33.02;98083.63;5136040;27;20027;-31
2022/01/25 05:56:56;;;;;;;3.28;1.50;;;;;;;12.65;33.07;98085.19;5136247;27;20029;-31
2022/01/25 05:59:22;;;;;;;3.28;1.15;;;;;;;12.68;33.02;98095.28;5135912;27;20418;-31
2022/01/25 06:01:48;;;;;;;1.92;1.45;;;;;;;12.75;32.60;98092.50;5136088;27;20106;-31
2022/01/25 06:04:14;;;;;;;2.58;1.20;;;;;;;12.69;33.21;98105.00;5136112;27;20033;-31
2022/01/25 06:06:39;;;;;;;2.33;1.10;;;;;;;12.52;33.24;98104.69;5135872;27;20427;-31
2022/01/25 06:09:05;;;;;;;3.20;1.40;;;;;;;12.40;33.19;98102.44;5135806;27;20027;-31
2022/01/25 06:11:30;;;;;;;2.38;1.45;;;;;;;12.52;33.21;98099.25;5136350;27;20023;-31
2022/01/25 06:13:56;;;;;;;1.60;1.20;;;;;;;12.56;33.28;98110.91;5135663;27;20047;-31
2022/01/25 06:16:21;;;;;;;2.10;1.40;;;;;;;12.33;33.55;98107.16;5132601;27;20023;-30
2022/01/25 06:18:47;;;;;;;2.10;1.30;;;;;;;12.52;33.21;98110.13;5113510;28;20028;-32
2022/01/25 06:21:12;;;;;;;2.33;1.30;;;;;;;12.60;32.97;98110.88;5112863;28;20440;-31
2022/01/25 06:23:38;;;;;;;2.75;1.30;;;;;;;12.63;32.82;98112.00;5112942;28;20027;-32
2022/01/25 06:26:03;;;;;;;2.35;1.33;;;;;;;12.59;33.00;98114.78;5112935;28;20024;-31
2022/01/25 06:28:29;;;;;;;2.13;1.20;;;;;;;12.62;32.92;98113.97;5112677;28;20031;-31
2022/01/25 06:30:54;;;;;;;3.22;1.20;;;;;;;12.61;32.99;98108.94;5111548;28;20074;-31
2022/01/25 06:33:20;;;;;;;1.45;1.20;;;;;;;12.60;33.26;98116.34;5112930;28;20464;-32
2022/01/25 06:35:46;;;;;;;3.30;1.60;;;;;;;12.61;33.13;98117.09;5112860;28;20054;-31
2022/01/25 06:38:13;;;;;;;3.30;1.52;;;;;;;12.67;33.12;98120.94;5112793;28;20083;-31
2022/01/25 06:40:39;;;;;;;2.30;1.40;;;;;;;12.66;33.33;98112.00;5112508;28;20498;-31
2022/01/25 06:43:04;;;;;;;2.85;1.60;;;;;;;12.61;33.18;98122.56;5112561;28;20027;-32
2022/01/25 06:45:30;;;;;;;3.92;1.48;;;;;;;12.62;33.28;98124.06;5112572;28;20015;-31
2022/01/25 06:47:56;;;;;;;2.13;1.60;;;;;;;12.64;33.24;98117.06;5112435;28;20459;-33
2022/01/25 06:50:23;;;;;;;2.47;1.75;;;;;;;12.65;33.34;98123.28;5112538;28;20031;-31
2022/01/25 06:52:49;;;;;;;3.85;2.17;;;;;;;12.62;33.07;98121.34;5112000;28;20022;-31
2022/01/25 06:55:17;;;;;;;3.17;2.30;;;;;;;12.64;33.01;98119.78;5132730;27;20026;-31
2022/01/25 06:57:44;;;;;;;2.25;1.70;;;;;;;12.61;32.98;98119.84;5132370;27;20044;-31
2022/01/25 07:00:13;;;;;;;2.15;1.80;;;;;;;12.61;33.10;98128.00;5132857;27;20023;-31
2022/01/25 07:02:39;;;;;;;2.92;1.70;;;;;;;12.66;33.57;98124.84;5132638;27;20467;-32
2022/01/25 07:05:06;;;;;;;3.38;2.00;;;;;;;12.63;33.30;98125.63;5132443;27;20055;-31
2022/01/25 07:07:31;;;;;;;3.30;2.10;;;;;;;12.65;33.05;98124.06;5132702;27;20030;-31
2022/01/25 07:09:57;;;;;;;3.70;1.80;;;;;;;12.64;33.14;98135.34;5132571;27;20023;-31
2022/01/25 07:12:24;;;;;;;2.85;2.00;;;;;;;12.51;33.46;98135.81;5132629;27;20027;-32
2022/01/25 07:14:49;;;;;;;2.83;1.98;;;;;;;12.56;33.49;98135.41;5132715;27;20076;-31
2022/01/25 07:17:15;;;;;;;2.22;1.67;;;;;;;12.66;33.20;98141.94;5132272;27;20027;-31
2022/01/25 07:19:40;;;;;;;3.13;1.70;;;;;;;12.68;33.39;98134.16;5114161;27;20023;-31
2022/01/25 07:22:06;;;;;;;3.42;2.03;;;;;;;12.68;33.04;98127.94;5132556;27;20023;-31
2022/01/25 07:24:32;;;;;;;3.30;2.00;;;;;;;12.65;32.90;98128.72;5132469;27;20051;-32
2022/01/25 07:26:58;;;;;;;3.15;1.90;;;;;;;12.72;32.91;98132.19;5132653;27;20031;-31
2022/01/25 07:29:23;;;;;;;3.15;1.80;;;;;;;12.59;33.16;98131.88;5132046;27;20072;-31
2022/01/25 07:31:48;;;;;;;2.60;1.70;;;;;;;12.50;33.10;98131.53;5130366;27;20018;-31
2022/01/25 07:34:14;;;;;;;3.28;2.00;;;;;;;12.57;33.25;98138.91;5132214;27;20032;-31
2022/01/25 07:36:42;;;;;;;3.45;2.38;;;;;;;12.74;32.99;98137.22;5132097;27;20038;-31
2022/01/25 07:39:09;;;;;;;3.75;2.17;;;;;;;12.62;33.03;98134.97;5131847;27;20023;-33
2022/01/25 07:41:35;;;;;;;3.42;1.77;;;;;;;12.62;33.26;98140.41;5131762;27;20023;-31
2022/01/25 07:44:01;;;;;;;3.05;1.90;;;;;;;12.63;33.04;98145.44;5131898;27;20030;-31
2022/01/25 07:46:28;;;;;;;4.45;1.73;;;;;;;12.64;32.97;98138.84;5131954;27;20027;-31
2022/01/25 07:48:53;;;;;;;3.13;1.85;;;;;;;12.50;33.56;98133.47;5132234;27;20023;-31
2022/01/25 07:51:19;;;;;;;4.15;2.10;;;;;;;12.52;33.44;98129.19;5131949;28;20038;-31
2022/01/25 07:53:44;;;;;;;2.08;1.60;;;;;;;12.63;33.04;98131.84;5123996;28;20058;-31
2022/01/25 07:56:10;;;;;;;3.47;1.90;;;;;;;12.62;32.93;98129.53;5111637;28;20023;-31
2022/01/25 07:58:36;;;;;;;3.13;2.03;;;;;;;12.63;33.39;98128.34;5111356;28;20501;-31
2022/01/25 08:01:03;;;;;;;3.95;2.10;;;;;;;12.71;33.24;98133.38;5111584;28;20088;-32
2022/01/25 08:03:29;;;;;;;2.83;1.92;;;;;;;12.62;32.70;98135.72;5111437;28;20414;-31
2022/01/25 08:05:55;;;;;;;4.13;2.00;;;;;;;12.54;33.15;98136.97;5092780;28;20034;-31
2022/01/25 08:08:20;;;;;;;4.72;2.05;;;;;;;12.47;33.17;98137.00;5111275;28;20031;-31
2022/01/25 08:10:46;;;;;;;3.40;1.98;;;;;;;12.64;33.17;98138.06;5101761;28;20102;-31
2022/01/25 08:13:11;;;;;;;4.95;2.05;;;;;;;12.67;33.13;98134.56;5132028;28;20027;-31
2022/01/25 08:15:37;;;;;;;3.47;2.00;;;;;;;12.61;33.18;98136.16;5131648;28;20031;-31
2022/01/25 08:18:02;;;;;;;3.55;2.20;;;;;;;12.61;33.16;98141.59;5131760;28;20031;-32
2022/01/25 08:20:28;;;;;;;3.60;2.00;;;;;;;12.64;33.01;98132.63;5131778;28;20469;-31
2022/01/25 08:22:53;;;;;;;2.83;2.30;;;;;;;12.62;33.17;98132.25;5131852;28;20106;-31
2022/01/25 08:25:19;;;;;;;3.78;2.03;;;;;;;12.54;33.23;98132.28;5130568;27;20102;-32
2022/01/25 08:27:46;;;;;;;2.90;2.17;;;;;;;12.61;33.19;98145.06;5130540;27;20058;-31
2022/01/25 08:30:13;;;;;;;2.58;1.77;;;;;;;12.59;33.02;98136.56;5130329;27;20030;-31
2022/01/25 08:32:38;;;;;;;2.58;1.92;;;;;;;12.57;33.12;98136.94;5128969;28;20083;-31
2022/01/25 08:35:04;;;;;;;2.53;2.00;;;;;;;12.58;33.40;98141.22;5131050;28;20011;-31
2022/01/25 08:37:30;;;;;;;2.38;1.88;;;;;;;12.49;33.14;98134.66;5130875;27;20394;-31
2022/01/25 08:39:55;;;;;;;2.55;1.73;;;;;;;12.50;33.40;98128.03;5132288;27;20042;-32
2022/01/25 08:42:21;;;;;;;2.58;2.00;;;;;;;12.65;33.04;98140.38;5135007;27;20531;-31
2022/01/25 08:44:46;;;;;;;4.65;2.00;;;;;;;12.54;33.16;98139.69;5135448;27;20039;-31
2022/01/25 08:47:13;;;;;;;3.67;2.00;;;;;;;12.66;33.07;98141.16;5127991;27;20026;-31
2022/01/25 08:49:39;;;;;;;3.67;1.80;;;;;;;12.61;33.17;98145.06;5129351;27;20466;-31
2022/01/25 08:52:05;;;;;;;2.55;2.05;;;;;;;12.69;32.95;98140.38;5135129;27;20455;-31
2022/01/25 08:54:31;;;;;;;2.92;2.10;;;;;;;12.58;33.46;98135.78;5120514;27;20023;-31
2022/01/25 08:56:57;;;;;;;2.53;1.67;;;;;;;12.52;33.51;98148.25;5114612;28;20027;-31
2022/01/25 08:59:23;;;;;;;3.33;1.95;;;;;;;12.56;33.45;98138.13;5125009;27;20039;-31
2022/01/25 09:01:48;;;;;;;3.65;1.80;;;;;;;12.62;33.02;98145.84;5134941;27;20121;-31
2022/01/25 09:04:14;;;;;;;4.72;3.97;;;;;;;11.85;33.42;98145.81;5136267;27;20027;-31
2022/01/25 09:06:40;;;;;;;5.53;4.28;;;;;;;12.08;33.33;98137.19;5135726;27;20019;-31
2022/01/25 09:09:08;;;;;;;8.07;4.95;;;;;;;12.34;33.13;98150.28;5136608;27;20481;-32
2022/01/25 09:11:39;;;;;;;8.05;4.18;;;;;;;12.37;32.68;98152.19;5136832;27;20023;-31
2022/01/25 09:14:06;;;;;;;5.22;4.03;;;;;;;12.48;33.00;98147.50;5137172;27;20027;-32
2022/01/25 09:16:33;;;;;;;4.78;3.88;;;;;;;12.55;32.71;98150.16;5136780;27;20047;-31
2022/01/25 09:18:58;;;;;;;4.32;3.42;;;;;;;12.54;32.76;98143.19;5137128;27;20034;-32
2022/01/25 09:21:24;;;;;;;5.35;3.80;;;;;;;12.50;33.18;98150.56;5136790;27;20034;-31
2022/01/25 09:23:49;;;;;;;5.68;3.47;;;;;;;12.59;33.00;98152.88;5136629;27;20027;-32
2022/01/25 09:26:17;;;;;;;5.07;3.67;;;;;;;12.44;33.48;98152.19;5136831;27;20019;-32
2022/01/25 09:28:42;;;;;;;5.53;3.90;;;;;;;12.51;32.98;98156.78;5136976;27;20104;-32
2022/01/25 09:31:08;;;;;;;4.70;3.22;;;;;;;12.54;33.04;98161.44;5136418;27;20155;-31
2022/01/25 09:33:33;;;;;;;5.38;3.65;;;;;;;12.62;32.65;98157.50;5136444;27;20027;-31
2022/01/25 09:35:59;;;;;;;3.83;3.30;;;;;;;12.64;32.80;98152.44;5136532;27;20041;-31
2022/01/25 09:38:25;;;;;;;3.92;2.95;;;;;;;12.68;32.67;98163.31;5136463;27;20462;-31
2022/01/25 09:40:51;;;;;;;4.18;3.33;;;;;;;12.49;32.86;98170.78;5136451;27;20019;-31
2022/01/25 09:43:20;;;;;;;5.65;3.67;;;;;;;12.28;32.82;98164.69;5136265;27;20071;-31
2022/01/25 09:45:46;;;;;;;4.88;3.22;;;;;;;12.49;33.16;98173.53;5136401;27;20027;-31
2022/01/25 09:48:16;;;;;;;4.78;3.20;;;;;;;12.54;32.56;98175.84;5136255;27;20034;-31
2022/01/25 09:50:42;;;;;;;4.78;3.15;;;;;;;12.61;32.78;98179.72;5135967;27;20074;-31
2022/01/25 09:53:08;;;;;;;4.55;3.22;;;;;;;12.58;32.62;98170.38;5135379;27;20106;-31
2022/01/25 09:55:41;;;;;;;5.63;3.33;;;;;;;12.44;32.95;98175.91;5136127;27;20034;-31
2022/01/25 09:58:08;;;;;;;7.15;3.20;;;;;;;12.51;32.80;98179.34;5136140;27;20043;-31
2022/01/25 10:00:35;;;;;;;4.18;2.78;;;;;;;12.59;32.98;98174.66;5136246;27;20030;-31
2022/01/25 10:05:36;;;;;;;5.47;3.25;;;;;;;12.56;33.20;98180.88;5136043;27;20080;-31
2022/01/25 10:08:14;;;;;;;5.97;3.55;;;;;;;12.40;32.65;98173.19;5136004;27;20400;-31
2022/01/25 10:10:48;;;;;;;6.85;3.58;;;;;;;12.53;32.52;98173.50;5135785;27;20052;-31
2022/01/25 10:13:21;;;;;;;5.43;3.33;;;;;;;12.65;32.61;98170.34;5135785;27;20015;-31
2022/01/25 10:15:48;;;;;;;6.90;3.40;;;;;;;12.64;32.63;98165.28;5135821;27;20030;-31
2022/01/25 10:18:14;;;;;;;5.97;3.50;;;;;;;12.62;32.69;98162.19;5135880;27;20034;-31
2022/01/25 10:20:42;;;;;;;5.75;3.45;;;;;;;12.50;33.10;98164.19;5135346;27;20383;-30
2022/01/25 10:23:10;;;;;;;6.95;3.47;;;;;;;12.68;32.62;98163.31;5135498;27;20027;-31
2022/01/25 10:25:42;;;;;;;7.97;3.58;;;;;;;12.65;32.39;98166.84;5117175;27;20035;-31
2022/01/25 10:28:12;;;;;;;6.13;3.28;;;;;;;12.68;32.40;98158.66;5135579;27;20015;-31
2022/01/25 10:30:39;;;;;;;4.90;2.97;;;;;;;12.67;32.17;98154.38;5135515;27;20026;-31
2022/01/25 10:33:18;;;;;;;7.22;3.30;;;;;;;12.65;32.61;98158.66;5135328;27;20027;-31
2022/01/25 10:35:44;;;;;;;4.38;2.78;;;;;;;12.75;32.66;98160.56;5135366;27;20455;-31
2022/01/25 10:38:28;;;;;;;5.18;2.70;;;;;;;12.71;32.21;98155.16;5135270;27;20075;-31
2022/01/25 10:41:00;;;;;;;5.35;3.10;;;;;;;12.67;32.71;98153.59;5135095;27;20019;-31
2022/01/25 10:43:26;;;;;;;5.05;3.00;;;;;;;12.56;32.92;98146.28;5135349;27;20091;-31
2022/01/25 10:46:24;;;;;;;4.97;3.17;;;;;;;12.65;32.27;98150.50;5135111;27;20110;-31
2022/01/25 10:48:58;;;;;;;4.85;3.15;;;;;;;12.73;32.25;98150.09;5135041;27;20046;-31
2022/01/25 10:51:39;;;;;;;5.22;3.13;;;;;;;12.76;32.38;98148.50;5134979;27;20030;-31
2022/01/25 10:54:17;;;;;;;5.88;3.13;;;;;;;12.49;31.20;98157.19;5134915;27;20375;-32
2022/01/25 10:56:49;;;;;;;4.90;3.00;;;;;;;12.34;33.03;98157.69;5135277;27;20029;-31
2022/01/25 10:59:21;;;;;;;5.20;3.20;;;;;;;12.28;33.30;98146.41;5134589;27;20599;-31
2022/01/25 11:02:05;;;;;;;4.60;2.95;;;;;;;12.50;32.85;98153.31;5133102;27;20080;-31
2022/01/25 11:04:40;;;;;;;4.82;2.83;;;;;;;12.58;32.63;98145.88;5132438;27;20027;-31
2022/01/25 11:07:07;;;;;;;4.53;3.22;;;;;;;12.52;32.49;98152.91;5134473;27;20027;-31
2022/01/25 11:09:38;;;;;;;4.85;2.97;;;;;;;12.64;32.02;98146.22;5134627;27;20027;-31
2022/01/25 11:12:09;;;;;;;4.25;2.90;;;;;;;12.17;32.71;98149.19;5135021;27;20019;-31
2022/01/25 11:14:53;;;;;;;7.38;3.58;;;;;;;12.50;33.09;98145.13;5134903;27;20022;-31
2022/01/25 11:17:29;;;;;;;6.00;3.50;;;;;;;12.70;32.95;98148.16;5134878;27;20463;-31
2022/01/25 11:19:55;;;;;;;6.50;3.25;;;;;;;12.69;33.04;98145.81;5134564;27;20363;-31
2022/01/25 11:22:21;;;;;;;5.80;3.60;;;;;;;12.75;32.63;98134.09;5134538;27;20360;-31
2022/01/25 11:24:51;;;;;;;5.30;3.00;;;;;;;12.62;32.80;98132.25;5134447;27;20098;-31
2022/01/25 11:27:18;;;;;;;5.18;3.03;;;;;;;12.58;33.01;98130.34;5115951;27;20378;-31
2022/01/25 11:29:45;;;;;;;6.07;3.25;;;;;;;12.68;32.88;98127.94;5134402;27;20025;-31
2022/01/25 11:32:14;;;;;;;6.80;3.35;;;;;;;12.43;32.88;98126.13;5134317;27;20027;-31
2022/01/25 11:34:43;;;;;;;4.95;3.42;;;;;;;12.64;32.89;98132.63;5134417;27;20034;-31
2022/01/25 11:37:09;;;;;;;5.95;3.28;;;;;;;12.63;32.34;98125.63;5134595;27;20417;-31
2022/01/25 11:39:39;;;;;;;5.97;2.85;;;;;;;12.59;32.76;98126.44;5134300;27;20089;-31
2022/01/25 11:42:09;;;;;;;4.22;2.75;;;;;;;12.74;32.73;98115.44;5134409;27;20015;-32
2022/01/25 11:44:44;;;;;;;5.35;3.13;;;;;;;12.62;32.44;98121.34;5134114;27;20023;-32
2022/01/25 11:47:16;;;;;;;5.40;2.75;;;;;;;12.80;32.96;98109.19;5134290;27;20439;-31
2022/01/25 11:50:00;;;;;;;5.28;2.85;;;;;;;12.85;32.99;98106.06;5134137;27;20023;-31
2022/01/25 11:52:28;;;;;;;4.75;2.50;;;;;;;12.85;33.05;98105.28;5134199;27;20026;-31
2022/01/25 11:55:19;;;;;;;4.13;2.75;;;;;;;12.83;32.88;98091.28;5134226;28;20027;-31
2022/01/25 11:57:53;;;;;;;3.92;2.35;;;;;;;12.88;32.58;98099.00;5133951;28;20053;-31
2022/01/25 12:00:35;;;;;;;3.70;2.50;;;;;;;12.85;32.93;98089.72;5133989;28;20035;-31
2022/01/25 12:03:01;;;;;;;5.55;2.55;;;;;;;12.85;32.95;98091.66;5134019;28;20026;-31
2022/01/25 12:05:27;;;;;;;4.35;3.00;;;;;;;12.51;32.70;98078.66;5133912;28;20024;-31
2022/01/25 12:08:11;;;;;;;7.63;2.60;;;;;;;12.59;32.69;98077.44;5133996;28;20031;-31
2022/01/25 12:10:41;;;;;;;4.50;3.15;;;;;;;12.66;32.87;98079.34;5134052;28;20030;-31
2022/01/25 12:13:23;;;;;;;5.38;3.05;;;;;;;12.84;33.04;98073.78;5115355;28;20390;-31
2022/01/25 12:16:21;;;;;;;4.30;2.95;;;;;;;12.92;33.04;98075.25;5136600;27;20546;-31
2022/01/25 12:19:04;;;;;;;6.70;2.83;;;;;;;12.84;32.69;98071.81;5138234;27;20030;-31
2022/01/25 12:21:45;;;;;;;4.80;2.38;;;;;;;12.75;33.39;98065.25;5137942;27;20026;-31
2022/01/25 12:24:21;;;;;;;5.93;2.90;;;;;;;12.91;32.84;98062.81;5137700;27;20383;-31
2022/01/25 12:30:03;;;;;;;5.55;2.95;;;;;;;12.75;32.78;98068.75;5137966;27;20457;-31
2022/01/25 12:32:37;;;;;;;5.35;3.00;;;;;;;12.69;33.28;98061.44;5137917;27;20023;-31
2022/01/25 12:35:18;;;;;;;5.55;2.60;;;;;;;12.96;32.88;98054.22;5137852;27;20043;-31
2022/01/25 12:37:43;;;;;;;5.07;2.80;;;;;;;12.79;32.52;98053.19;5137765;27;20053;-31
2022/01/25 12:40:28;;;;;;;5.40;2.58;;;;;;;12.79;33.03;98061.34;5137775;27;20055;-31
2022/01/25 12:42:55;;;;;;;3.95;2.35;;;;;;;12.85;32.84;98059.75;5137761;27;20600;-31
2022/01/25 12:45:23;;;;;;;3.85;3.00;;;;;;;12.87;32.72;98054.66;5137615;27;20030;-31
2022/01/25 12:47:53;;;;;;;4.70;2.30;;;;;;;12.76;32.70;98064.09;5137500;27;20023;-32
2022/01/25 12:50:19;;;;;;;3.72;2.40;;;;;;;12.71;33.03;98065.31;5137771;27;20073;-32
2022/01/25 12:52:46;;;;;;;3.50;2.30;;;;;;;12.81;32.90;98055.50;5119150;27;20027;-31
2022/01/25 12:55:13;;;;;;;4.72;2.42;;;;;;;12.72;32.71;98052.47;5137367;27;20459;-34
2022/01/25 12:57:46;;;;;;;4.82;2.50;;;;;;;12.86;32.58;98049.63;5136997;27;20373;-32
2022/01/25 13:00:12;;;;;;;2.67;2.20;;;;;;;12.98;32.78;98040.97;5137151;27;20047;-31
2022/01/25 13:02:38;;;;;;;3.83;2.30;;;;;;;13.01;32.33;98042.88;5136978;27;20035;-31
2022/01/25 13:05:14;;;;;;;5.50;2.70;;;;;;;12.90;32.82;98048.41;5137286;27;20355;-31
2022/01/25 13:07:40;;;;;;;4.05;2.30;;;;;;;12.98;32.69;98049.16;5137093;27;20027;-32
2022/01/25 13:10:09;;;;;;;4.80;2.50;;;;;;;13.02;32.39;98038.22;5137084;27;20035;-30
2022/01/25 13:12:37;;;;;;;2.90;2.10;;;;;;;12.89;32.79;98037.94;5136756;27;20080;-31
2022/01/25 13:15:25;;;;;;;2.97;2.40;;;;;;;12.91;32.85;98032.84;5118540;27;20051;-31
2022/01/25 13:17:48;;;;;;;2.58;1.90;;;;;;;12.92;32.88;98039.84;5136876;27;20119;-32